Coal Creek, Iowa
Current Conditions -  °F | °C
As of 11:55 AM on Thursday 30 Oct 2014 (Local Time) from KOOA Reporting Station
Scattered Clouds Scattered Clouds  
Wind Chill: 56°   Ceiling: Unl
Heat Index: 56°   Visibility: 10mi
Dew Point: 37°   Wind: 13mph
Humidity: 48%   Direction: 150°SSE
Pressure: 30.03"   Gusts: NA
Location:  41.3798°N, 92.3541°W
Report Text: KOOA 301655Z AUTO 15011KT 10SM SCT100 13/03 A3003 RMK AO2 T01340026
Loading
Personal Weather Stations






























Interactive Weather Map
Tropical Storm Tracking
New forecast layout! Learn more

10-Day Weather Forecast

Advertisements
Track Severe Weather on mobile